Time;durP1;ratioP1;P1;durP2;ratioP2;P2;SDS_P1;SDS_P2;PMS_P1;PMS_P2;Temp;Humidity;BMP_temperature;BMP_pressure;BME280_temperature;BME280_humidity;BME280_pressure;Samples;Min_cycle;Max_cycle;Signal;HPM_P1;HPM_P2
2023/09/10 00:02:18;;;;;;;126.10;69.57;;;;;;;;;;5033234;28;20028;-72
2023/09/10 00:04:44;;;;;;;135.80;72.57;;;;;;;;;;5033293;28;20029;-71
2023/09/10 00:07:09;;;;;;;130.90;72.90;;;;;;;;;;5033292;28;20070;-72
2023/09/10 00:09:34;;;;;;;143.85;77.60;;;;;;;;;;5033459;28;20111;-71
2023/09/10 00:12:00;;;;;;;137.88;75.10;;;;;;;;;;5033460;28;20021;-72
2023/09/10 00:14:25;;;;;;;146.93;78.50;;;;;;;;;;5033361;28;20430;-72
2023/09/10 00:16:50;;;;;;;142.95;75.72;;;;;;;;;;5032997;28;20408;-72
2023/09/10 00:19:15;;;;;;;152.38;80.70;;;;;;;;;;5033074;28;20488;-72
2023/09/10 00:21:41;;;;;;;157.05;81.95;;;;;;;;;;5032276;28;20021;-72
2023/09/10 00:24:06;;;;;;;181.73;92.55;;;;;;;;;;5033059;28;20028;-72
2023/09/10 00:26:32;;;;;;;155.55;81.25;;;;;;;;;;5031834;28;20092;-72
2023/09/10 00:28:57;;;;;;;87.22;50.13;;;;;;;;;;5032750;28;20017;-71
2023/09/10 00:31:22;;;;;;;89.30;52.50;;;;;;;;;;5031711;28;20021;-72
2023/09/10 00:33:47;;;;;;;120.00;66.70;;;;;;;;;;5032748;28;20065;-72
2023/09/10 00:36:12;;;;;;;141.93;74.05;;;;;;;;;;5032986;28;20029;-72
2023/09/10 00:38:38;;;;;;;168.80;84.57;;;;;;;;;;5032656;28;20394;-72
2023/09/10 00:41:06;;;;;;;172.60;81.25;;;;;;;;;;5032786;28;20490;-72
2023/09/10 00:43:31;;;;;;;160.18;79.50;;;;;;;;;;5032581;28;20013;-68
2023/09/10 00:45:56;;;;;;;175.27;86.22;;;;;;;;;;5032723;28;20017;-68
2023/09/10 00:48:22;;;;;;;206.05;95.57;;;;;;;;;;5033944;28;20025;-68
2023/09/10 00:50:47;;;;;;;205.98;96.82;;;;;;;;;;5032321;28;20017;-67
2023/09/10 00:53:12;;;;;;;193.13;93.40;;;;;;;;;;5032372;28;20018;-68
2023/09/10 00:55:38;;;;;;;198.77;93.20;;;;;;;;;;5032635;28;20029;-68
2023/09/10 00:58:03;;;;;;;203.50;96.13;;;;;;;;;;5029762;28;20033;-68
2023/09/10 01:03:34;;;;;;;179.32;88.05;;;;;;;;;;5030969;23;20069;-63
2023/09/10 01:05:59;;;;;;;228.18;101.20;;;;;;;;;;5009434;28;20030;-69
2023/09/10 01:08:24;;;;;;;228.88;101.63;;;;;;;;;;5012337;28;20026;-68
2023/09/10 01:10:58;;;;;;;127.55;65.22;;;;;;;;;;5021502;28;20029;-68
2023/09/10 01:13:41;;;;;;;94.25;53.13;;;;;;;;;;5024018;28;20400;-68
2023/09/10 01:16:09;;;;;;;101.43;54.60;;;;;;;;;;5020218;28;20531;-66
2023/09/10 01:18:42;;;;;;;141.15;72.35;;;;;;;;;;5013359;28;20072;-66
2023/09/10 01:21:26;;;;;;;143.68;70.40;;;;;;;;;;5029515;28;20026;-65
2023/09/10 01:24:03;;;;;;;112.15;59.03;;;;;;;;;;5031428;28;20366;-65
2023/09/10 01:26:28;;;;;;;85.43;50.30;;;;;;;;;;5030501;28;20093;-68
2023/09/10 01:28:53;;;;;;;89.15;50.20;;;;;;;;;;5031071;28;20033;-68
2023/09/10 01:31:18;;;;;;;139.45;71.20;;;;;;;;;;5031215;28;20021;-68
2023/09/10 01:33:52;;;;;;;178.82;86.40;;;;;;;;;;5015791;28;20038;-68
2023/09/10 01:36:25;;;;;;;218.43;99.13;;;;;;;;;;5012906;28;20025;-68
2023/09/10 01:38:55;;;;;;;208.30;95.43;;;;;;;;;;5012861;28;20037;-68
2023/09/10 01:41:21;;;;;;;211.75;96.47;;;;;;;;;;5014015;28;20104;-68
2023/09/10 01:43:46;;;;;;;207.48;93.55;;;;;;;;;;5014295;28;20147;-68
2023/09/10 01:46:12;;;;;;;190.50;88.72;;;;;;;;;;5014776;28;20524;-68
2023/09/10 01:48:37;;;;;;;158.25;78.43;;;;;;;;;;5013662;28;20505;-68
2023/09/10 01:51:02;;;;;;;177.93;83.85;;;;;;;;;;5031073;28;20025;-67
2023/09/10 01:53:28;;;;;;;215.85;95.20;;;;;;;;;;5026204;28;20073;-67
2023/09/10 01:55:53;;;;;;;216.93;97.55;;;;;;;;;;5012752;28;20026;-68
2023/09/10 01:58:18;;;;;;;258.70;108.22;;;;;;;;;;5012718;28;20105;-67
2023/09/10 02:00:46;;;;;;;262.95;109.82;;;;;;;;;;5012519;28;20033;-68
2023/09/10 02:03:12;;;;;;;261.38;112.05;;;;;;;;;;5012282;28;20782;-67
2023/09/10 02:05:37;;;;;;;273.40;111.65;;;;;;;;;;5015064;28;20030;-68
2023/09/10 02:08:03;;;;;;;240.75;104.15;;;;;;;;;;5012323;28;20049;-67
2023/09/10 02:10:28;;;;;;;236.55;104.30;;;;;;;;;;5012480;28;20029;-67
2023/09/10 02:12:54;;;;;;;211.77;96.97;;;;;;;;;;5012562;28;20351;-68
2023/09/10 02:15:19;;;;;;;190.20;93.85;;;;;;;;;;5012510;28;20036;-67
2023/09/10 02:17:44;;;;;;;152.48;83.32;;;;;;;;;;5012540;28;20041;-67
2023/09/10 02:20:10;;;;;;;166.05;85.65;;;;;;;;;;5012653;28;20026;-67
2023/09/10 02:22:41;;;;;;;159.57;84.68;;;;;;;;;;5012422;28;20386;-68
2023/09/10 02:25:07;;;;;;;201.88;96.82;;;;;;;;;;5012515;28;20045;-67
2023/09/10 02:27:33;;;;;;;219.07;97.13;;;;;;;;;;5012739;28;20037;-67
2023/09/10 02:29:58;;;;;;;212.50;98.85;;;;;;;;;;5012405;28;20385;-67
2023/09/10 02:32:24;;;;;;;244.73;104.88;;;;;;;;;;5012485;28;20386;-67
2023/09/10 02:34:51;;;;;;;219.07;97.57;;;;;;;;;;5012011;28;20018;-67
2023/09/10 02:37:17;;;;;;;174.35;83.05;;;;;;;;;;5012322;28;20010;-67
2023/09/10 02:39:42;;;;;;;167.02;81.63;;;;;;;;;;5014246;28;20025;-67
2023/09/10 02:42:07;;;;;;;186.50;90.07;;;;;;;;;;5015230;28;20026;-67
2023/09/10 02:44:32;;;;;;;216.35;97.85;;;;;;;;;;5015785;28;20026;-67
2023/09/10 02:46:58;;;;;;;242.15;103.88;;;;;;;;;;5015933;28;20053;-67
2023/09/10 02:49:24;;;;;;;284.95;111.20;;;;;;;;;;5015340;28;20026;-67
2023/09/10 02:51:50;;;;;;;259.10;107.38;;;;;;;;;;5015357;28;20033;-67
2023/09/10 02:54:15;;;;;;;222.80;97.97;;;;;;;;;;5015537;28;20018;-67
2023/09/10 02:56:40;;;;;;;218.50;98.88;;;;;;;;;;5015704;28;20018;-67
2023/09/10 02:59:06;;;;;;;210.90;95.35;;;;;;;;;;5015627;28;20026;-67
2023/09/10 03:01:31;;;;;;;253.65;106.82;;;;;;;;;;5016226;28;20033;-67
2023/09/10 03:03:56;;;;;;;299.50;115.57;;;;;;;;;;5015175;28;20053;-67
2023/09/10 03:06:21;;;;;;;320.45;120.60;;;;;;;;;;5014282;28;20089;-67
2023/09/10 03:08:47;;;;;;;299.00;116.28;;;;;;;;;;5013723;28;20030;-67
2023/09/10 03:11:12;;;;;;;285.80;114.22;;;;;;;;;;5015101;28;20029;-67
2023/09/10 03:13:37;;;;;;;229.82;99.03;;;;;;;;;;5015409;28;20050;-67
2023/09/10 03:16:02;;;;;;;267.83;108.28;;;;;;;;;;5014990;28;20489;-67
2023/09/10 03:18:28;;;;;;;235.60;97.53;;;;;;;;;;5015321;28;20030;-67
2023/09/10 03:20:53;;;;;;;269.05;107.15;;;;;;;;;;5015213;28;20363;-67
2023/09/10 03:23:19;;;;;;;259.67;102.72;;;;;;;;;;5014999;28;20093;-67
2023/09/10 03:25:45;;;;;;;263.30;107.57;;;;;;;;;;5014864;28;20022;-67
2023/09/10 03:28:11;;;;;;;215.23;92.25;;;;;;;;;;5015700;28;20025;-67
2023/09/10 03:30:36;;;;;;;263.52;103.68;;;;;;;;;;5033143;28;20029;-67
2023/09/10 03:33:01;;;;;;;270.80;105.13;;;;;;;;;;5033431;28;20018;-67
2023/09/10 03:35:27;;;;;;;269.73;102.25;;;;;;;;;;5033062;28;20027;-67
2023/09/10 03:37:52;;;;;;;217.60;92.97;;;;;;;;;;5027885;28;20014;-67
2023/09/10 03:40:17;;;;;;;278.85;105.80;;;;;;;;;;5014938;28;20030;-67
2023/09/10 03:42:42;;;;;;;242.68;98.57;;;;;;;;;;5014435;28;20076;-67
2023/09/10 03:45:08;;;;;;;295.92;110.57;;;;;;;;;;5020196;28;20025;-67
2023/09/10 03:47:35;;;;;;;337.38;120.47;;;;;;;;;;5032762;28;20072;-67
2023/09/10 03:50:00;;;;;;;287.98;114.57;;;;;;;;;;5032595;28;20479;-67
2023/09/10 03:52:26;;;;;;;245.50;102.40;;;;;;;;;;5031078;28;20026;-67
2023/09/10 03:54:51;;;;;;;189.25;84.07;;;;;;;;;;5032725;28;20029;-67
2023/09/10 03:57:16;;;;;;;216.52;92.97;;;;;;;;;;5032532;28;20025;-67
2023/09/10 03:59:42;;;;;;;195.35;81.95;;;;;;;;;;5018808;28;20463;-67
2023/09/10 04:02:07;;;;;;;211.07;89.90;;;;;;;;;;5032807;28;20037;-67
2023/09/10 04:04:33;;;;;;;351.88;114.05;;;;;;;;;;5021843;28;20049;-67
2023/09/10 04:06:58;;;;;;;373.65;122.75;;;;;;;;;;5014139;28;20084;-67
2023/09/10 04:09:24;;;;;;;406.02;131.93;;;;;;;;;;5013915;28;20046;-67
2023/09/10 04:11:49;;;;;;;401.55;131.90;;;;;;;;;;5014261;28;20037;-67
2023/09/10 04:14:14;;;;;;;364.30;128.13;;;;;;;;;;5014187;28;20032;-67
2023/09/10 04:16:40;;;;;;;256.25;102.13;;;;;;;;;;5014194;28;20026;-67
2023/09/10 04:19:05;;;;;;;285.70;111.97;;;;;;;;;;5021197;28;20079;-67
2023/09/10 04:21:30;;;;;;;203.82;94.45;;;;;;;;;;5032124;28;20037;-67
2023/09/10 04:23:55;;;;;;;199.95;91.32;;;;;;;;;;5032330;28;20071;-67
2023/09/10 04:26:20;;;;;;;213.27;95.32;;;;;;;;;;5032145;28;20024;-67
2023/09/10 04:28:46;;;;;;;294.63;107.40;;;;;;;;;;5027610;28;20021;-67
2023/09/10 04:31:12;;;;;;;303.77;105.90;;;;;;;;;;4995314;28;20026;-62
2023/09/10 04:33:37;;;;;;;605.47;116.37;;;;;;;;;;5023954;28;20064;-61
2023/09/10 04:36:02;;;;;;;1037.07;129.50;;;;;;;;;;5031838;28;20457;-62
2023/09/10 04:38:27;;;;;;;755.97;127.80;;;;;;;;;;5021924;28;20375;-63
2023/09/10 04:40:53;;;;;;;464.13;123.73;;;;;;;;;;5013631;28;20029;-62
2023/09/10 04:43:18;;;;;;;514.97;134.05;;;;;;;;;;5013739;28;20312;-60
2023/09/10 04:45:43;;;;;;;902.75;149.93;;;;;;;;;;5013218;28;20033;-60
2023/09/10 04:48:08;;;;;;;615.72;141.00;;;;;;;;;;5024395;28;20025;-59
2023/09/10 04:50:34;;;;;;;371.45;128.65;;;;;;;;;;5031612;28;20083;-60
2023/09/10 04:53:00;;;;;;;385.90;131.00;;;;;;;;;;5031965;28;20056;-59
2023/09/10 04:55:25;;;;;;;278.83;113.70;;;;;;;;;;5025349;28;20453;-59
2023/09/10 04:57:50;;;;;;;289.48;118.65;;;;;;;;;;5013133;28;20040;-59
2023/09/10 05:00:16;;;;;;;301.65;119.05;;;;;;;;;;5012785;28;20029;-59
2023/09/10 05:02:41;;;;;;;279.83;114.53;;;;;;;;;;5009647;28;20029;-60
2023/09/10 05:05:06;;;;;;;285.00;116.70;;;;;;;;;;5013644;28;20033;-60
2023/09/10 05:07:32;;;;;;;321.48;125.35;;;;;;;;;;5013237;28;20033;-60
2023/09/10 05:09:57;;;;;;;314.67;126.40;;;;;;;;;;5011615;28;20026;-59
2023/09/10 05:12:22;;;;;;;267.58;121.13;;;;;;;;;;5012978;28;20025;-60
2023/09/10 05:14:47;;;;;;;291.08;120.97;;;;;;;;;;5013110;28;20030;-59
2023/09/10 05:17:13;;;;;;;226.95;108.35;;;;;;;;;;5012873;28;20022;-61
2023/09/10 05:19:38;;;;;;;226.75;108.53;;;;;;;;;;5013075;28;20109;-59
2023/09/10 05:22:03;;;;;;;212.43;107.18;;;;;;;;;;5015043;28;20028;-60
2023/09/10 05:24:29;;;;;;;195.25;101.03;;;;;;;;;;5013047;28;20022;-60
2023/09/10 05:26:54;;;;;;;175.85;96.18;;;;;;;;;;5012911;28;20046;-60
2023/09/10 05:29:19;;;;;;;182.02;97.75;;;;;;;;;;5012694;28;20018;-60
2023/09/10 05:31:44;;;;;;;161.13;92.63;;;;;;;;;;5012966;28;20030;-60
2023/09/10 05:34:09;;;;;;;149.05;88.78;;;;;;;;;;5012947;28;20427;-60
2023/09/10 05:36:35;;;;;;;121.70;79.47;;;;;;;;;;5012608;28;20485;-59
2023/09/10 05:39:00;;;;;;;120.40;77.47;;;;;;;;;;5009607;28;20485;-60
2023/09/10 05:41:25;;;;;;;115.32;76.78;;;;;;;;;;5020609;28;20466;-60
2023/09/10 05:43:51;;;;;;;126.15;80.38;;;;;;;;;;5018640;28;20057;-59
2023/09/10 05:46:16;;;;;;;116.00;76.20;;;;;;;;;;5012565;28;20034;-60
2023/09/10 05:48:42;;;;;;;110.43;75.70;;;;;;;;;;5012627;28;20033;-59
2023/09/10 05:51:07;;;;;;;92.13;66.72;;;;;;;;;;5016106;28;20473;-63
2023/09/10 05:53:33;;;;;;;74.03;56.28;;;;;;;;;;5011062;28;20041;-66
2023/09/10 05:56:01;;;;;;;67.28;51.38;;;;;;;;;;5012633;28;20041;-65
2023/09/10 05:58:26;;;;;;;43.75;36.60;;;;;;;;;;5014170;28;20052;-65
2023/09/10 06:00:52;;;;;;;35.83;31.55;;;;;;;;;;5012986;28;20512;-60
2023/09/10 06:03:17;;;;;;;30.25;27.05;;;;;;;;;;5017254;28;20133;-61
2023/09/10 06:05:42;;;;;;;28.13;25.17;;;;;;;;;;5015592;28;20101;-60
2023/09/10 06:08:08;;;;;;;26.65;23.23;;;;;;;;;;5015395;28;20105;-60
2023/09/10 06:10:33;;;;;;;28.13;22.40;;;;;;;;;;5015439;28;20029;-60
2023/09/10 06:12:58;;;;;;;25.13;21.35;;;;;;;;;;5017098;28;20025;-60
2023/09/10 06:15:23;;;;;;;24.92;20.95;;;;;;;;;;5018153;28;20036;-60
2023/09/10 06:17:49;;;;;;;24.05;21.38;;;;;;;;;;5016077;28;20112;-60
2023/09/10 06:20:14;;;;;;;24.33;20.20;;;;;;;;;;5015764;28;20064;-60
2023/09/10 06:22:39;;;;;;;23.75;20.63;;;;;;;;;;5016011;28;20524;-60
2023/09/10 06:25:05;;;;;;;21.45;19.10;;;;;;;;;;5018409;28;20045;-61
2023/09/10 06:27:30;;;;;;;19.52;17.52;;;;;;;;;;5015801;28;20076;-61
2023/09/10 06:29:55;;;;;;;20.58;17.85;;;;;;;;;;5015956;28;20099;-61
2023/09/10 06:32:21;;;;;;;22.63;19.45;;;;;;;;;;5017058;28;20026;-61
2023/09/10 06:34:46;;;;;;;22.80;20.30;;;;;;;;;;5017696;28;20417;-61
2023/09/10 06:37:11;;;;;;;23.50;19.45;;;;;;;;;;5015742;28;20022;-61
2023/09/10 06:39:38;;;;;;;22.80;18.60;;;;;;;;;;5014812;28;20030;-61
2023/09/10 06:42:07;;;;;;;20.77;18.15;;;;;;;;;;5020955;28;20038;-61
2023/09/10 06:44:32;;;;;;;21.83;19.42;;;;;;;;;;5015341;28;20053;-61
2023/09/10 06:46:59;;;;;;;22.13;19.73;;;;;;;;;;5013598;28;20048;-61
2023/09/10 06:49:24;;;;;;;25.67;19.67;;;;;;;;;;5015431;28;20029;-60
2023/09/10 06:51:49;;;;;;;24.85;21.30;;;;;;;;;;5020431;28;20473;-60
2023/09/10 06:54:14;;;;;;;25.00;21.30;;;;;;;;;;5015042;28;20022;-61
2023/09/10 06:56:40;;;;;;;28.27;21.75;;;;;;;;;;5014793;28;20029;-61
2023/09/10 06:59:05;;;;;;;26.52;23.38;;;;;;;;;;5014843;28;20061;-61
2023/09/10 07:01:30;;;;;;;26.10;22.55;;;;;;;;;;5014712;28;20021;-61
2023/09/10 07:03:57;;;;;;;27.27;22.35;;;;;;;;;;5013935;28;20041;-61
2023/09/10 07:06:22;;;;;;;23.80;21.20;;;;;;;;;;5014720;28;20084;-62
2023/09/10 07:08:48;;;;;;;29.98;22.58;;;;;;;;;;5014773;28;20022;-62
2023/09/10 07:11:13;;;;;;;24.80;21.98;;;;;;;;;;5014908;28;20036;-62
2023/09/10 07:13:38;;;;;;;24.75;21.60;;;;;;;;;;5014761;28;20065;-61
2023/09/10 07:16:04;;;;;;;28.98;22.77;;;;;;;;;;5014780;28;20034;-61
2023/09/10 07:18:33;;;;;;;26.92;23.08;;;;;;;;;;5014236;28;20049;-62
2023/09/10 07:20:58;;;;;;;28.33;23.85;;;;;;;;;;5014824;28;20018;-62
2023/09/10 07:23:24;;;;;;;26.65;22.50;;;;;;;;;;5014283;28;20022;-61
2023/09/10 07:25:49;;;;;;;29.67;22.25;;;;;;;;;;5000623;28;20021;-62
2023/09/10 07:28:14;;;;;;;26.38;20.92;;;;;;;;;;5014505;28;20014;-61
2023/09/10 07:30:39;;;;;;;29.50;21.13;;;;;;;;;;5015241;28;20030;-61
2023/09/10 07:33:05;;;;;;;24.63;20.48;;;;;;;;;;5013545;28;20028;-61
2023/09/10 07:35:30;;;;;;;26.83;20.20;;;;;;;;;;5015680;28;20068;-59
2023/09/10 07:37:55;;;;;;;23.88;19.70;;;;;;;;;;5015714;28;20017;-59
2023/09/10 07:40:20;;;;;;;24.23;18.30;;;;;;;;;;5012653;28;20022;-60
2023/09/10 07:42:45;;;;;;;24.30;19.75;;;;;;;;;;5013507;28;20446;-59
2023/09/10 07:45:14;;;;;;;23.50;19.65;;;;;;;;;;5013963;28;20470;-59
2023/09/10 07:47:40;;;;;;;21.55;18.50;;;;;;;;;;5014372;28;20438;-59
2023/09/10 07:50:05;;;;;;;22.13;18.38;;;;;;;;;;5014142;28;20454;-59
2023/09/10 07:52:31;;;;;;;20.33;18.13;;;;;;;;;;5013745;28;20037;-60
2023/09/10 07:54:56;;;;;;;22.60;18.25;;;;;;;;;;5013351;28;20029;-61
2023/09/10 07:57:21;;;;;;;21.83;18.15;;;;;;;;;;5013398;28;20022;-61
2023/09/10 07:59:46;;;;;;;22.63;18.55;;;;;;;;;;5015604;28;20040;-60
2023/09/10 08:02:11;;;;;;;21.80;17.65;;;;;;;;;;5019346;28;20117;-60
2023/09/10 08:04:37;;;;;;;21.48;17.75;;;;;;;;;;5020044;28;20077;-60
2023/09/10 08:07:04;;;;;;;22.48;17.50;;;;;;;;;;5019344;28;20033;-60
2023/09/10 08:09:31;;;;;;;27.33;18.42;;;;;;;;;;5017253;28;20026;-60
2023/09/10 08:11:56;;;;;;;20.63;17.73;;;;;;;;;;5014528;28;20496;-60
2023/09/10 08:14:21;;;;;;;19.80;17.27;;;;;;;;;;5013654;28;20017;-61
2023/09/10 08:16:47;;;;;;;21.87;17.23;;;;;;;;;;5015603;28;20026;-60
2023/09/10 08:19:12;;;;;;;20.17;17.10;;;;;;;;;;5014069;28;20273;-60
2023/09/10 08:21:38;;;;;;;23.60;17.15;;;;;;;;;;5013605;28;20277;-65
2023/09/10 08:24:04;;;;;;;19.63;16.20;;;;;;;;;;5015403;28;20025;-66
2023/09/10 08:26:29;;;;;;;22.38;17.65;;;;;;;;;;5014160;28;20045;-65
2023/09/10 08:28:54;;;;;;;22.70;18.65;;;;;;;;;;5015991;28;20421;-67
2023/09/10 08:31:19;;;;;;;20.90;16.83;;;;;;;;;;5022240;28;20358;-67
2023/09/10 08:33:45;;;;;;;23.23;16.95;;;;;;;;;;5015980;28;20426;-66
2023/09/10 08:36:11;;;;;;;19.80;16.02;;;;;;;;;;5013219;28;20354;-66
2023/09/10 08:38:36;;;;;;;16.92;14.23;;;;;;;;;;5013030;28;20053;-67
2023/09/10 08:41:10;;;;;;;16.92;13.63;;;;;;;;;;5012542;28;20018;-66
2023/09/10 08:43:39;;;;;;;16.90;14.25;;;;;;;;;;5012715;28;20175;-66
2023/09/10 08:46:08;;;;;;;16.30;13.07;;;;;;;;;;5013043;28;20022;-66
2023/09/10 08:48:33;;;;;;;17.85;12.98;;;;;;;;;;5020980;28;20049;-66
2023/09/10 08:50:58;;;;;;;15.88;12.60;;;;;;;;;;5013430;28;20056;-66
2023/09/10 08:53:24;;;;;;;18.83;12.90;;;;;;;;;;5013216;28;20473;-66
2023/09/10 08:55:50;;;;;;;17.42;13.93;;;;;;;;;;5013346;28;20029;-66
2023/09/10 08:58:15;;;;;;;15.93;12.10;;;;;;;;;;5013211;28;20022;-66
2023/09/10 09:00:42;;;;;;;15.02;11.85;;;;;;;;;;5012771;28;20072;-66
2023/09/10 09:03:08;;;;;;;14.65;12.00;;;;;;;;;;5012178;28;20033;-66
2023/09/10 09:05:34;;;;;;;15.85;11.73;;;;;;;;;;5013450;28;20482;-66
2023/09/10 09:08:08;;;;;;;15.07;12.88;;;;;;;;;;5012088;28;20025;-66
2023/09/10 09:10:33;;;;;;;14.00;11.90;;;;;;;;;;5012940;28;20030;-66
2023/09/10 09:13:02;;;;;;;14.13;12.10;;;;;;;;;;5012259;28;20116;-67
2023/09/10 09:15:27;;;;;;;16.83;11.95;;;;;;;;;;5014580;28;20042;-66
2023/09/10 09:17:55;;;;;;;13.33;10.30;;;;;;;;;;5012883;28;20033;-67
2023/09/10 09:20:20;;;;;;;18.33;11.73;;;;;;;;;;5012502;28;20618;-66
2023/09/10 09:22:48;;;;;;;14.15;11.30;;;;;;;;;;5012668;28;20029;-66
2023/09/10 09:25:14;;;;;;;15.57;10.85;;;;;;;;;;5013055;28;20474;-65
2023/09/10 09:27:39;;;;;;;18.27;11.50;;;;;;;;;;5012218;28;20033;-66
2023/09/10 09:30:07;;;;;;;15.20;12.45;;;;;;;;;;5013590;28;20014;-66
2023/09/10 09:32:37;;;;;;;15.95;13.10;;;;;;;;;;5013731;28;20073;-66
2023/09/10 09:35:03;;;;;;;16.15;13.07;;;;;;;;;;5013623;28;20049;-67
2023/09/10 09:37:32;;;;;;;16.17;12.70;;;;;;;;;;5013632;28;20394;-66
2023/09/10 09:39:58;;;;;;;13.60;11.23;;;;;;;;;;5013630;28;20025;-67
2023/09/10 09:42:24;;;;;;;14.73;12.10;;;;;;;;;;5013603;28;20029;-66
2023/09/10 09:44:49;;;;;;;18.23;13.73;;;;;;;;;;5015666;28;20026;-66
2023/09/10 09:47:14;;;;;;;17.23;13.93;;;;;;;;;;5028132;28;20335;-67
2023/09/10 09:49:44;;;;;;;17.95;13.23;;;;;;;;;;5039886;28;20288;-66
2023/09/10 09:52:10;;;;;;;18.38;14.23;;;;;;;;;;5038972;28;20083;-66
2023/09/10 09:54:35;;;;;;;16.90;13.52;;;;;;;;;;5020055;28;20029;-67
2023/09/10 09:57:02;;;;;;;14.93;12.20;;;;;;;;;;5027283;28;20044;-67
2023/09/10 09:59:27;;;;;;;16.00;12.52;;;;;;;;;;5031771;28;20052;-67
2023/09/10 10:01:52;;;;;;;17.20;13.93;;;;;;;;;;5019017;28;20438;-68
2023/09/10 10:04:20;;;;;;;17.73;13.93;;;;;;;;;;5015014;28;20653;-68
2023/09/10 10:06:45;;;;;;;17.35;12.57;;;;;;;;;;5014808;28;20470;-68
2023/09/10 10:09:11;;;;;;;18.42;12.50;;;;;;;;;;5013774;28;20017;-68
2023/09/10 10:11:37;;;;;;;15.00;11.70;;;;;;;;;;5014425;28;20112;-69
2023/09/10 10:14:02;;;;;;;15.88;12.40;;;;;;;;;;5016605;28;20021;-70
2023/09/10 10:16:28;;;;;;;16.52;13.30;;;;;;;;;;5017622;28;20021;-70
2023/09/10 10:18:54;;;;;;;16.15;12.80;;;;;;;;;;5000974;28;20092;-71
2023/09/10 10:21:20;;;;;;;18.65;13.48;;;;;;;;;;5015390;28;20061;-71
2023/09/10 10:23:46;;;;;;;16.65;12.82;;;;;;;;;;5018132;28;20022;-70
2023/09/10 10:26:11;;;;;;;18.63;11.95;;;;;;;;;;5010428;28;20022;-70
2023/09/10 10:28:37;;;;;;;17.08;11.30;;;;;;;;;;5000772;28;20382;-70
2023/09/10 10:31:14;;;;;;;18.25;11.70;;;;;;;;;;5006689;28;20018;-70
2023/09/10 10:33:44;;;;;;;16.63;11.70;;;;;;;;;;5012090;28;20089;-70
2023/09/10 10:36:15;;;;;;;16.13;12.68;;;;;;;;;;5016380;28;20021;-70
2023/09/10 10:38:42;;;;;;;15.45;12.20;;;;;;;;;;5007812;28;20034;-71
2023/09/10 10:41:12;;;;;;;18.45;13.68;;;;;;;;;;5011332;28;20021;-70
2023/09/10 10:43:41;;;;;;;20.02;12.90;;;;;;;;;;5010413;28;20057;-70
2023/09/10 10:46:07;;;;;;;18.13;12.43;;;;;;;;;;5007938;28;20034;-69
2023/09/10 10:48:36;;;;;;;23.48;13.85;;;;;;;;;;5005969;28;20022;-69
2023/09/10 10:51:02;;;;;;;18.73;13.27;;;;;;;;;;5014537;28;20048;-69
2023/09/10 10:53:28;;;;;;;18.65;12.48;;;;;;;;;;5018131;28;20478;-69
2023/09/10 10:55:56;;;;;;;18.42;13.27;;;;;;;;;;5008667;28;20022;-67
2023/09/10 10:58:24;;;;;;;18.65;13.02;;;;;;;;;;5019270;28;20478;-68
2023/09/10 11:00:50;;;;;;;21.08;12.63;;;;;;;;;;4999233;28;20038;-69
2023/09/10 11:03:16;;;;;;;22.48;11.68;;;;;;;;;;5008860;28;20398;-69
2023/09/10 11:05:54;;;;;;;16.70;11.07;;;;;;;;;;5012570;28;20022;-69
2023/09/10 11:08:26;;;;;;;18.25;10.48;;;;;;;;;;5009873;28;20414;-69
2023/09/10 11:10:51;;;;;;;22.05;11.63;;;;;;;;;;5004982;28;20097;-69
2023/09/10 11:13:16;;;;;;;19.13;11.13;;;;;;;;;;5005563;28;20089;-69
2023/09/10 11:16:00;;;;;;;17.60;11.43;;;;;;;;;;5006604;28;20041;-70
2023/09/10 11:18:34;;;;;;;18.45;11.32;;;;;;;;;;5011726;28;20014;-69
2023/09/10 11:21:00;;;;;;;17.75;10.23;;;;;;;;;;5007468;28;20385;-69
2023/09/10 11:23:25;;;;;;;15.55;10.82;;;;;;;;;;5006703;28;20014;-69
2023/09/10 11:25:51;;;;;;;16.00;9.48;;;;;;;;;;5004578;28;20014;-69
2023/09/10 11:28:34;;;;;;;15.60;10.18;;;;;;;;;;5008243;28;20014;-70
2023/09/10 11:31:02;;;;;;;18.92;9.68;;;;;;;;;;5009296;28;20018;-70
2023/09/10 11:33:29;;;;;;;15.48;8.80;;;;;;;;;;5008697;28;20569;-70
2023/09/10 11:35:57;;;;;;;14.80;8.20;;;;;;;;;;5014255;28;20459;-70
2023/09/10 11:38:24;;;;;;;22.75;8.68;;;;;;;;;;5015543;28;20374;-70
2023/09/10 11:40:50;;;;;;;16.65;8.55;;;;;;;;;;5011847;28;20466;-69
2023/09/10 11:43:15;;;;;;;16.27;8.52;;;;;;;;;;5012424;28;20080;-70
2023/09/10 11:45:41;;;;;;;15.68;8.98;;;;;;;;;;5006196;28;20013;-70
2023/09/10 11:48:06;;;;;;;16.85;8.93;;;;;;;;;;5025318;28;20036;-70
2023/09/10 11:50:33;;;;;;;19.25;8.50;;;;;;;;;;5034858;28;20014;-70
2023/09/10 11:52:58;;;;;;;16.27;8.05;;;;;;;;;;5030637;28;20475;-70
2023/09/10 11:55:23;;;;;;;19.70;7.65;;;;;;;;;;5014184;28;20029;-70
2023/09/10 11:57:50;;;;;;;15.10;8.05;;;;;;;;;;5014742;28;20030;-70
2023/09/10 12:00:16;;;;;;;16.83;8.20;;;;;;;;;;5015245;28;20434;-70
2023/09/10 12:02:41;;;;;;;20.45;8.68;;;;;;;;;;5015235;28;20076;-71
2023/09/10 12:05:07;;;;;;;16.08;7.60;;;;;;;;;;5014090;28;20054;-70
2023/09/10 12:07:33;;;;;;;21.50;8.18;;;;;;;;;;5013984;28;20386;-70
2023/09/10 12:09:58;;;;;;;20.52;6.72;;;;;;;;;;5013886;28;20057;-71
2023/09/10 12:12:32;;;;;;;13.55;6.47;;;;;;;;;;5013808;28;20024;-71
2023/09/10 12:14:57;;;;;;;17.30;6.50;;;;;;;;;;5016357;28;20380;-71
2023/09/10 12:17:23;;;;;;;12.65;5.95;;;;;;;;;;5014095;28;20100;-71
2023/09/10 12:19:49;;;;;;;13.18;5.50;;;;;;;;;;5014276;28;20087;-71
2023/09/10 12:22:18;;;;;;;17.83;6.00;;;;;;;;;;5014415;28;20428;-71
2023/09/10 12:24:43;;;;;;;17.77;5.43;;;;;;;;;;5013522;28;20041;-72
2023/09/10 12:27:09;;;;;;;19.98;6.22;;;;;;;;;;5013597;28;20021;-72
2023/09/10 12:29:34;;;;;;;13.27;5.43;;;;;;;;;;5013577;28;20018;-72
2023/09/10 12:32:00;;;;;;;11.70;5.20;;;;;;;;;;5013733;28;20025;-71
2023/09/10 12:34:25;;;;;;;15.18;5.28;;;;;;;;;;5013867;28;20045;-71
2023/09/10 12:36:50;;;;;;;15.38;6.10;;;;;;;;;;5012788;28;20022;-72
2023/09/10 12:39:23;;;;;;;10.48;5.55;;;;;;;;;;5013900;28;20029;-72
2023/09/10 12:41:52;;;;;;;15.00;6.07;;;;;;;;;;5013428;28;20088;-72
2023/09/10 12:44:19;;;;;;;20.00;6.00;;;;;;;;;;5013581;28;20025;-73
2023/09/10 12:46:44;;;;;;;15.38;5.43;;;;;;;;;;5013403;28;20022;-74
2023/09/10 12:49:09;;;;;;;13.55;5.70;;;;;;;;;;5016042;28;20022;-73
2023/09/10 12:51:35;;;;;;;16.00;6.10;;;;;;;;;;5013549;28;20091;-71
2023/09/10 12:54:00;;;;;;;16.55;5.80;;;;;;;;;;5013399;28;20390;-71
2023/09/10 12:56:27;;;;;;;14.40;5.53;;;;;;;;;;5012544;28;20065;-72
2023/09/10 12:58:52;;;;;;;14.77;5.10;;;;;;;;;;5013250;28;20033;-73
2023/09/10 13:01:19;;;;;;;17.13;5.40;;;;;;;;;;5013370;28;20486;-73
2023/09/10 13:03:45;;;;;;;18.13;5.38;;;;;;;;;;5011996;28;20536;-72
2023/09/10 13:06:11;;;;;;;16.83;5.32;;;;;;;;;;5012770;28;20049;-75
2023/09/10 13:08:36;;;;;;;18.60;5.90;;;;;;;;;;5013331;28;20018;-75
2023/09/10 13:11:02;;;;;;;16.02;5.38;;;;;;;;;;5012975;28;20022;-73
2023/09/10 13:13:28;;;;;;;13.93;4.97;;;;;;;;;;5013128;28;20014;-74
2023/09/10 13:15:53;;;;;;;13.23;4.60;;;;;;;;;;5013034;28;20024;-73
2023/09/10 13:18:18;;;;;;;21.17;4.97;;;;;;;;;;5013391;28;20057;-72
2023/09/10 13:20:44;;;;;;;12.97;4.73;;;;;;;;;;5013280;28;20292;-72
2023/09/10 13:23:09;;;;;;;14.03;5.03;;;;;;;;;;5017682;28;20640;-70
2023/09/10 13:25:34;;;;;;;12.35;4.78;;;;;;;;;;5013312;28;20669;-72
2023/09/10 13:27:59;;;;;;;23.33;5.05;;;;;;;;;;5013032;28;20022;-72
2023/09/10 13:30:25;;;;;;;16.38;4.70;;;;;;;;;;5012739;28;20053;-73
2023/09/10 13:32:51;;;;;;;17.20;4.50;;;;;;;;;;5012651;28;20370;-72
2023/09/10 13:35:16;;;;;;;19.23;4.88;;;;;;;;;;5013537;28;20022;-73
2023/09/10 13:37:42;;;;;;;12.93;4.72;;;;;;;;;;5015982;28;20324;-73
2023/09/10 13:40:08;;;;;;;19.60;4.80;;;;;;;;;;5013328;28;20033;-72
2023/09/10 13:42:33;;;;;;;16.60;4.70;;;;;;;;;;5013225;28;20029;-72
2023/09/10 13:44:58;;;;;;;14.32;4.00;;;;;;;;;;5013274;28;20032;-73
2023/09/10 13:47:23;;;;;;;25.27;4.68;;;;;;;;;;5013475;28;20022;-72
2023/09/10 13:49:48;;;;;;;13.50;4.73;;;;;;;;;;5013456;28;20026;-72
2023/09/10 13:52:14;;;;;;;18.77;5.23;;;;;;;;;;5013173;28;20253;-74
2023/09/10 13:54:39;;;;;;;14.88;4.70;;;;;;;;;;5022337;28;20271;-77
2023/09/10 13:57:04;;;;;;;17.05;4.78;;;;;;;;;;5032800;28;20021;-76
2023/09/10 13:59:30;;;;;;;16.05;4.53;;;;;;;;;;5033039;28;20040;-74
2023/09/10 14:01:55;;;;;;;14.57;4.65;;;;;;;;;;5033006;28;20099;-76
2023/09/10 14:04:20;;;;;;;15.60;4.20;;;;;;;;;;5032726;28;20041;-75
2023/09/10 14:06:45;;;;;;;18.98;4.55;;;;;;;;;;5022506;28;20253;-73
2023/09/10 14:09:11;;;;;;;13.23;4.28;;;;;;;;;;5005240;28;20576;-74